sensor_id;sensor_type;location;lat;lon;timestamp;pressure;altitude;pressure_sealevel;temperature;humidity
25947;BME280;13745;51.470;9.894;2024-01-11T00:01:08;100855.03;;;-5.86;64.50
25947;BME280;13745;51.470;9.894;2024-01-11T00:03:55;100855.91;;;-5.86;64.12
25947;BME280;13745;51.470;9.894;2024-01-11T00:06:41;100859.41;;;-5.84;64.33
25947;BME280;13745;51.470;9.894;2024-01-11T00:09:26;100865.13;;;-5.86;64.07
25947;BME280;13745;51.470;9.894;2024-01-11T00:12:11;100869.94;;;-5.89;65.05
25947;BME280;13745;51.470;9.894;2024-01-11T00:14:57;100868.19;;;-5.90;64.82
25947;BME280;13745;51.470;9.894;2024-01-11T00:17:43;100877.31;;;-5.92;64.09
25947;BME280;13745;51.470;9.894;2024-01-11T00:20:29;100881.38;;;-5.95;64.91
25947;BME280;13745;51.470;9.894;2024-01-11T00:23:15;100882.00;;;-5.97;64.24
25947;BME280;13745;51.470;9.894;2024-01-11T00:25:59;100879.75;;;-6.04;63.93
25947;BME280;13745;51.470;9.894;2024-01-11T00:28:44;100876.53;;;-6.13;64.94
25947;BME280;13745;51.470;9.894;2024-01-11T00:31:29;100863.22;;;-6.23;64.57
25947;BME280;13745;51.470;9.894;2024-01-11T00:34:14;100863.00;;;-6.26;65.17
25947;BME280;13745;51.470;9.894;2024-01-11T00:37:01;100858.47;;;-6.30;65.23
25947;BME280;13745;51.470;9.894;2024-01-11T00:39:46;100856.59;;;-6.32;64.07
25947;BME280;13745;51.470;9.894;2024-01-11T00:42:31;100850.19;;;-6.39;64.84
25947;BME280;13745;51.470;9.894;2024-01-11T00:45:16;100841.91;;;-6.48;64.12
25947;BME280;13745;51.470;9.894;2024-01-11T00:48:02;100838.91;;;-6.54;64.35
25947;BME280;13745;51.470;9.894;2024-01-11T00:50:47;100847.22;;;-6.55;65.49
25947;BME280;13745;51.470;9.894;2024-01-11T00:53:33;100833.53;;;-6.59;64.97
25947;BME280;13745;51.470;9.894;2024-01-11T00:56:19;100824.97;;;-6.61;65.14
25947;BME280;13745;51.470;9.894;2024-01-11T00:59:04;100831.66;;;-6.61;64.86
25947;BME280;13745;51.470;9.894;2024-01-11T01:01:50;100829.75;;;-6.64;65.24
25947;BME280;13745;51.470;9.894;2024-01-11T01:04:37;100834.69;;;-6.65;65.33
25947;BME280;13745;51.470;9.894;2024-01-11T01:07:22;100828.88;;;-6.64;65.85
25947;BME280;13745;51.470;9.894;2024-01-11T01:10:08;100814.28;;;-6.68;65.30
25947;BME280;13745;51.470;9.894;2024-01-11T01:12:53;100817.31;;;-6.72;65.00
25947;BME280;13745;51.470;9.894;2024-01-11T01:15:38;100823.41;;;-6.81;65.86
25947;BME280;13745;51.470;9.894;2024-01-11T01:18:24;100830.19;;;-6.80;65.44
25947;BME280;13745;51.470;9.894;2024-01-11T01:21:09;100813.03;;;-6.73;66.20
25947;BME280;13745;51.470;9.894;2024-01-11T01:23:54;100825.25;;;-6.68;65.51
25947;BME280;13745;51.470;9.894;2024-01-11T01:26:40;100824.38;;;-6.68;65.41
25947;BME280;13745;51.470;9.894;2024-01-11T01:29:26;100812.28;;;-6.72;66.22
25947;BME280;13745;51.470;9.894;2024-01-11T01:32:11;100830.19;;;-6.69;65.69
25947;BME280;13745;51.470;9.894;2024-01-11T01:34:56;100822.72;;;-6.68;65.95
25947;BME280;13745;51.470;9.894;2024-01-11T01:37:41;100836.09;;;-6.69;66.09
25947;BME280;13745;51.470;9.894;2024-01-11T01:40:26;100829.53;;;-6.67;65.88
25947;BME280;13745;51.470;9.894;2024-01-11T01:43:13;100839.72;;;-6.65;65.82
25947;BME280;13745;51.470;9.894;2024-01-11T01:45:58;100847.94;;;-6.68;65.67
25947;BME280;13745;51.470;9.894;2024-01-11T01:48:44;100842.03;;;-6.68;66.16
25947;BME280;13745;51.470;9.894;2024-01-11T01:51:30;100848.81;;;-6.67;65.48
25947;BME280;13745;51.470;9.894;2024-01-11T01:54:16;100845.53;;;-6.66;65.67
25947;BME280;13745;51.470;9.894;2024-01-11T01:57:02;100843.66;;;-6.69;65.61
25947;BME280;13745;51.470;9.894;2024-01-11T01:59:51;100849.31;;;-6.71;65.84
25947;BME280;13745;51.470;9.894;2024-01-11T02:02:37;100843.28;;;-6.73;65.75
25947;BME280;13745;51.470;9.894;2024-01-11T02:05:23;100845.91;;;-6.72;66.36
25947;BME280;13745;51.470;9.894;2024-01-11T02:08:12;100841.00;;;-6.70;65.76
25947;BME280;13745;51.470;9.894;2024-01-11T02:11:00;100835.94;;;-6.70;65.21
25947;BME280;13745;51.470;9.894;2024-01-11T02:13:45;100833.97;;;-6.74;65.71
25947;BME280;13745;51.470;9.894;2024-01-11T02:16:32;100826.78;;;-6.80;65.79
25947;BME280;13745;51.470;9.894;2024-01-11T02:19:19;100826.69;;;-6.82;65.69
25947;BME280;13745;51.470;9.894;2024-01-11T02:22:08;100822.03;;;-6.87;65.58
25947;BME280;13745;51.470;9.894;2024-01-11T02:24:58;100822.03;;;-6.87;65.89
25947;BME280;13745;51.470;9.894;2024-01-11T02:27:47;100827.22;;;-6.86;65.99
25947;BME280;13745;51.470;9.894;2024-01-11T02:30:33;100823.56;;;-6.89;65.92
25947;BME280;13745;51.470;9.894;2024-01-11T02:33:18;100823.22;;;-6.94;66.45
25947;BME280;13745;51.470;9.894;2024-01-11T02:36:04;100835.31;;;-7.00;66.62
25947;BME280;13745;51.470;9.894;2024-01-11T02:38:50;100838.97;;;-7.07;66.46
25947;BME280;13745;51.470;9.894;2024-01-11T02:41:37;100849.56;;;-7.00;66.99
25947;BME280;13745;51.470;9.894;2024-01-11T02:44:23;100839.81;;;-6.96;66.83
25947;BME280;13745;51.470;9.894;2024-01-11T02:47:08;100834.16;;;-6.93;66.47
25947;BME280;13745;51.470;9.894;2024-01-11T02:49:53;100841.06;;;-6.91;65.76
25947;BME280;13745;51.470;9.894;2024-01-11T02:52:38;100840.31;;;-6.90;66.09
25947;BME280;13745;51.470;9.894;2024-01-11T02:55:23;100839.31;;;-6.92;65.70
25947;BME280;13745;51.470;9.894;2024-01-11T02:58:09;100846.13;;;-6.91;66.79
25947;BME280;13745;51.470;9.894;2024-01-11T03:00:54;100845.34;;;-6.90;66.40
25947;BME280;13745;51.470;9.894;2024-01-11T03:03:39;100845.25;;;-6.91;66.09
25947;BME280;13745;51.470;9.894;2024-01-11T03:06:24;100849.41;;;-6.92;66.75
25947;BME280;13745;51.470;9.894;2024-01-11T03:09:09;100850.94;;;-6.94;65.81
25947;BME280;13745;51.470;9.894;2024-01-11T03:11:55;100840.97;;;-6.92;66.92
25947;BME280;13745;51.470;9.894;2024-01-11T03:14:41;100844.34;;;-6.92;66.51
25947;BME280;13745;51.470;9.894;2024-01-11T03:17:27;100853.56;;;-6.92;66.43
25947;BME280;13745;51.470;9.894;2024-01-11T03:20:13;100854.94;;;-6.96;66.35
25947;BME280;13745;51.470;9.894;2024-01-11T03:22:58;100849.03;;;-6.96;66.63
25947;BME280;13745;51.470;9.894;2024-01-11T03:25:43;100832.69;;;-7.01;66.79
25947;BME280;13745;51.470;9.894;2024-01-11T03:28:28;100829.66;;;-7.08;66.45
25947;BME280;13745;51.470;9.894;2024-01-11T03:31:14;100840.88;;;-7.14;67.13
25947;BME280;13745;51.470;9.894;2024-01-11T03:34:00;100842.28;;;-7.18;66.81
25947;BME280;13745;51.470;9.894;2024-01-11T03:36:44;100847.06;;;-7.21;67.28
25947;BME280;13745;51.470;9.894;2024-01-11T03:39:30;100836.88;;;-7.22;66.45
25947;BME280;13745;51.470;9.894;2024-01-11T03:42:15;100839.28;;;-7.24;67.58
25947;BME280;13745;51.470;9.894;2024-01-11T03:45:00;100825.03;;;-7.23;67.63
25947;BME280;13745;51.470;9.894;2024-01-11T03:47:46;100829.19;;;-7.24;66.57
25947;BME280;13745;51.470;9.894;2024-01-11T03:50:31;100826.44;;;-7.27;66.65
25947;BME280;13745;51.470;9.894;2024-01-11T03:53:17;100819.00;;;-7.25;66.29
25947;BME280;13745;51.470;9.894;2024-01-11T03:56:02;100816.97;;;-7.29;66.75
25947;BME280;13745;51.470;9.894;2024-01-11T03:58:48;100843.03;;;-7.29;66.51
25947;BME280;13745;51.470;9.894;2024-01-11T04:01:33;100843.31;;;-7.26;66.87
25947;BME280;13745;51.470;9.894;2024-01-11T04:04:20;100841.78;;;-7.24;67.58
25947;BME280;13745;51.470;9.894;2024-01-11T04:07:06;100826.56;;;-7.25;67.38
25947;BME280;13745;51.470;9.894;2024-01-11T04:09:51;100821.91;;;-7.31;66.58
25947;BME280;13745;51.470;9.894;2024-01-11T04:12:36;100829.84;;;-7.37;66.45
25947;BME280;13745;51.470;9.894;2024-01-11T04:15:21;100814.50;;;-7.40;66.86
25947;BME280;13745;51.470;9.894;2024-01-11T04:18:06;100801.66;;;-7.43;67.47
25947;BME280;13745;51.470;9.894;2024-01-11T04:20:52;100806.72;;;-7.43;66.81
25947;BME280;13745;51.470;9.894;2024-01-11T04:23:37;100826.84;;;-7.43;68.01
25947;BME280;13745;51.470;9.894;2024-01-11T04:26:22;100840.66;;;-7.38;66.91
25947;BME280;13745;51.470;9.894;2024-01-11T04:29:07;100839.28;;;-7.34;67.85
25947;BME280;13745;51.470;9.894;2024-01-11T04:31:52;100837.00;;;-7.31;67.37
25947;BME280;13745;51.470;9.894;2024-01-11T04:34:37;100858.41;;;-7.26;67.57
25947;BME280;13745;51.470;9.894;2024-01-11T04:37:23;100859.53;;;-7.22;66.89
25947;BME280;13745;51.470;9.894;2024-01-11T04:40:09;100860.28;;;-7.23;67.79
25947;BME280;13745;51.470;9.894;2024-01-11T04:42:54;100880.56;;;-7.22;67.14
25947;BME280;13745;51.470;9.894;2024-01-11T04:45:39;100878.78;;;-7.23;66.97
25947;BME280;13745;51.470;9.894;2024-01-11T04:48:24;100886.34;;;-7.23;67.40
25947;BME280;13745;51.470;9.894;2024-01-11T04:51:10;100887.13;;;-7.24;67.22
25947;BME280;13745;51.470;9.894;2024-01-11T04:53:56;100889.63;;;-7.24;67.54
25947;BME280;13745;51.470;9.894;2024-01-11T04:56:42;100893.03;;;-7.23;67.96
25947;BME280;13745;51.470;9.894;2024-01-11T04:59:27;100914.31;;;-7.20;67.82
25947;BME280;13745;51.470;9.894;2024-01-11T05:02:12;100917.84;;;-7.18;67.49
25947;BME280;13745;51.470;9.894;2024-01-11T05:04:57;100918.72;;;-7.17;67.05
25947;BME280;13745;51.470;9.894;2024-01-11T05:07:42;100916.69;;;-7.21;67.29
25947;BME280;13745;51.470;9.894;2024-01-11T05:10:28;100914.69;;;-7.25;67.81
25947;BME280;13745;51.470;9.894;2024-01-11T05:13:13;100912.06;;;-7.27;68.04
25947;BME280;13745;51.470;9.894;2024-01-11T05:15:58;100923.78;;;-7.27;67.58
25947;BME280;13745;51.470;9.894;2024-01-11T05:18:43;100924.66;;;-7.27;68.01
25947;BME280;13745;51.470;9.894;2024-01-11T05:21:29;100918.09;;;-7.25;67.09
25947;BME280;13745;51.470;9.894;2024-01-11T05:24:14;100910.41;;;-7.26;67.12
25947;BME280;13745;51.470;9.894;2024-01-11T05:27:00;100916.44;;;-7.24;66.87
25947;BME280;13745;51.470;9.894;2024-01-11T05:29:45;100900.34;;;-7.26;67.00
25947;BME280;13745;51.470;9.894;2024-01-11T05:32:30;100892.41;;;-7.31;68.20
25947;BME280;13745;51.470;9.894;2024-01-11T05:35:15;100870.28;;;-7.35;68.04
25947;BME280;13745;51.470;9.894;2024-01-11T05:38:00;100844.06;;;-7.47;67.32
25947;BME280;13745;51.470;9.894;2024-01-11T05:40:45;100839.94;;;-7.57;67.53
25947;BME280;13745;51.470;9.894;2024-01-11T05:43:32;100824.84;;;-7.67;68.35
25947;BME280;13745;51.470;9.894;2024-01-11T05:46:18;100825.34;;;-7.71;68.00
25947;BME280;13745;51.470;9.894;2024-01-11T05:49:02;100846.34;;;-7.71;68.30
25947;BME280;13745;51.470;9.894;2024-01-11T05:51:48;100838.03;;;-7.70;68.50
25947;BME280;13745;51.470;9.894;2024-01-11T05:54:33;100850.38;;;-7.63;68.00
25947;BME280;13745;51.470;9.894;2024-01-11T05:57:18;100849.88;;;-7.58;67.66
25947;BME280;13745;51.470;9.894;2024-01-11T06:00:05;100847.25;;;-7.60;68.29
25947;BME280;13745;51.470;9.894;2024-01-11T06:02:50;100854.66;;;-7.61;68.68
25947;BME280;13745;51.470;9.894;2024-01-11T06:05:35;100867.09;;;-7.63;68.86
25947;BME280;13745;51.470;9.894;2024-01-11T06:08:20;100878.06;;;-7.63;68.33
25947;BME280;13745;51.470;9.894;2024-01-11T06:11:05;100895.53;;;-7.54;69.28
25947;BME280;13745;51.470;9.894;2024-01-11T06:13:51;100878.44;;;-7.48;68.26
25947;BME280;13745;51.470;9.894;2024-01-11T06:16:37;100885.50;;;-7.44;68.27
25947;BME280;13745;51.470;9.894;2024-01-11T06:19:23;100879.47;;;-7.36;68.32
25947;BME280;13745;51.470;9.894;2024-01-11T06:22:08;100887.25;;;-7.32;69.18
25947;BME280;13745;51.470;9.894;2024-01-11T06:24:53;100874.91;;;-7.29;68.49
25947;BME280;13745;51.470;9.894;2024-01-11T06:27:38;100878.16;;;-7.30;67.85
25947;BME280;13745;51.470;9.894;2024-01-11T06:30:23;100891.91;;;-7.27;68.17
25947;BME280;13745;51.470;9.894;2024-01-11T06:33:09;100898.06;;;-7.23;68.81
25947;BME280;13745;51.470;9.894;2024-01-11T06:35:55;100900.59;;;-7.23;68.23
25947;BME280;13745;51.470;9.894;2024-01-11T06:38:40;100906.63;;;-7.21;68.71
25947;BME280;13745;51.470;9.894;2024-01-11T06:41:25;100910.00;;;-7.21;68.19
25947;BME280;13745;51.470;9.894;2024-01-11T06:44:10;100911.81;;;-7.20;68.07
25947;BME280;13745;51.470;9.894;2024-01-11T06:46:56;100911.94;;;-7.18;67.96
25947;BME280;13745;51.470;9.894;2024-01-11T06:49:42;100900.69;;;-7.22;67.83
25947;BME280;13745;51.470;9.894;2024-01-11T06:52:27;100900.59;;;-7.23;68.83
25947;BME280;13745;51.470;9.894;2024-01-11T06:55:12;100909.78;;;-7.24;67.92
25947;BME280;13745;51.470;9.894;2024-01-11T06:57:57;100910.16;;;-7.19;68.90
25947;BME280;13745;51.470;9.894;2024-01-11T07:00:43;100906.13;;;-7.17;68.84
25947;BME280;13745;51.470;9.894;2024-01-11T07:03:28;100896.06;;;-7.17;68.55
25947;BME280;13745;51.470;9.894;2024-01-11T07:06:14;100905.84;;;-7.20;68.28
25947;BME280;13745;51.470;9.894;2024-01-11T07:08:59;100891.66;;;-7.20;68.63
25947;BME280;13745;51.470;9.894;2024-01-11T07:11:44;100883.34;;;-7.19;68.97
25947;BME280;13745;51.470;9.894;2024-01-11T07:14:29;100877.53;;;-7.18;69.10
25947;BME280;13745;51.470;9.894;2024-01-11T07:17:15;100881.59;;;-7.20;68.38
25947;BME280;13745;51.470;9.894;2024-01-11T07:20:00;100882.06;;;-7.14;68.10
25947;BME280;13745;51.470;9.894;2024-01-11T07:22:49;100873.38;;;-7.07;68.87
25947;BME280;13745;51.470;9.894;2024-01-11T07:25:33;100857.59;;;-7.04;68.59
25947;BME280;13745;51.470;9.894;2024-01-11T07:28:18;100862.03;;;-7.02;68.14
25947;BME280;13745;51.470;9.894;2024-01-11T07:31:10;100876.13;;;-6.94;68.12
25947;BME280;13745;51.470;9.894;2024-01-11T07:33:55;100872.56;;;-6.86;68.93
25947;BME280;13745;51.470;9.894;2024-01-11T07:36:40;100878.94;;;-6.79;67.80
25947;BME280;13745;51.470;9.894;2024-01-11T07:39:26;100884.38;;;-6.74;67.79
25947;BME280;13745;51.470;9.894;2024-01-11T07:42:11;100885.47;;;-6.71;67.81
25947;BME280;13745;51.470;9.894;2024-01-11T07:44:56;100872.50;;;-6.65;68.04
25947;BME280;13745;51.470;9.894;2024-01-11T07:47:42;100872.09;;;-6.60;67.81
25947;BME280;13745;51.470;9.894;2024-01-11T07:50:27;100889.88;;;-6.58;68.27
25947;BME280;13745;51.470;9.894;2024-01-11T07:53:12;100884.44;;;-6.53;68.25
25947;BME280;13745;51.470;9.894;2024-01-11T07:56:00;100888.78;;;-6.40;67.80
25947;BME280;13745;51.470;9.894;2024-01-11T07:58:45;100894.31;;;-6.34;67.55
25947;BME280;13745;51.470;9.894;2024-01-11T08:01:30;100899.19;;;-6.25;68.07
25947;BME280;13745;51.470;9.894;2024-01-11T08:04:16;100897.03;;;-6.20;67.23
25947;BME280;13745;51.470;9.894;2024-01-11T08:07:01;100910.88;;;-6.15;67.64
25947;BME280;13745;51.470;9.894;2024-01-11T08:09:47;100900.00;;;-6.14;67.14
25947;BME280;13745;51.470;9.894;2024-01-11T08:12:34;100894.34;;;-6.12;67.57
25947;BME280;13745;51.470;9.894;2024-01-11T08:15:19;100880.81;;;-6.12;68.18
25947;BME280;13745;51.470;9.894;2024-01-11T08:18:06;100895.06;;;-6.13;67.46
25947;BME280;13745;51.470;9.894;2024-01-11T08:20:51;100879.94;;;-6.13;67.69
25947;BME280;13745;51.470;9.894;2024-01-11T08:23:37;100882.16;;;-6.06;67.27
25947;BME280;13745;51.470;9.894;2024-01-11T08:26:23;100902.94;;;-5.98;67.39
25947;BME280;13745;51.470;9.894;2024-01-11T08:29:09;100912.06;;;-5.88;67.42
25947;BME280;13745;51.470;9.894;2024-01-11T08:31:54;100910.22;;;-5.79;67.96
25947;BME280;13745;51.470;9.894;2024-01-11T08:34:40;100901.50;;;-5.73;67.63
25947;BME280;13745;51.470;9.894;2024-01-11T08:37:25;100903.03;;;-5.75;67.92
25947;BME280;13745;51.470;9.894;2024-01-11T08:40:11;100892.72;;;-5.78;67.22
25947;BME280;13745;51.470;9.894;2024-01-11T08:42:56;100898.97;;;-5.73;67.26
25947;BME280;13745;51.470;9.894;2024-01-11T08:45:43;100900.41;;;-5.65;68.12
25947;BME280;13745;51.470;9.894;2024-01-11T08:48:28;100913.72;;;-5.55;67.37
25947;BME280;13745;51.470;9.894;2024-01-11T08:51:13;100904.47;;;-5.45;67.13
25947;BME280;13745;51.470;9.894;2024-01-11T08:53:58;100906.69;;;-5.38;67.08
25947;BME280;13745;51.470;9.894;2024-01-11T08:56:43;100914.16;;;-5.27;66.93
25947;BME280;13745;51.470;9.894;2024-01-11T08:59:28;100920.88;;;-5.16;67.09
25947;BME280;13745;51.470;9.894;2024-01-11T09:02:15;100922.44;;;-5.06;66.84
25947;BME280;13745;51.470;9.894;2024-01-11T09:05:00;100909.59;;;-4.98;66.85
25947;BME280;13745;51.470;9.894;2024-01-11T09:07:46;100917.22;;;-4.86;67.20
25947;BME280;13745;51.470;9.894;2024-01-11T09:10:31;100921.72;;;-4.70;66.57
25947;BME280;13745;51.470;9.894;2024-01-11T09:13:16;100909.50;;;-4.53;66.42
25947;BME280;13745;51.470;9.894;2024-01-11T09:16:01;100909.94;;;-4.46;66.96
25947;BME280;13745;51.470;9.894;2024-01-11T09:18:47;100912.25;;;-4.38;66.24
25947;BME280;13745;51.470;9.894;2024-01-11T09:21:32;100901.13;;;-4.28;66.34
25947;BME280;13745;51.470;9.894;2024-01-11T09:24:18;100907.00;;;-4.04;66.38
25947;BME280;13745;51.470;9.894;2024-01-11T09:27:03;100910.81;;;-2.98;65.21
25947;BME280;13745;51.470;9.894;2024-01-11T09:29:49;100900.66;;;-1.20;62.83
25947;BME280;13745;51.470;9.894;2024-01-11T09:32:34;100892.38;;;0.38;59.92
25947;BME280;13745;51.470;9.894;2024-01-11T09:35:21;100892.75;;;1.66;58.15
25947;BME280;13745;51.470;9.894;2024-01-11T09:38:07;100876.16;;;2.72;57.40
25947;BME280;13745;51.470;9.894;2024-01-11T09:40:59;100871.50;;;3.68;55.70
25947;BME280;13745;51.470;9.894;2024-01-11T09:43:48;100863.22;;;5.76;54.58
25947;BME280;13745;51.470;9.894;2024-01-11T09:46:35;100841.75;;;9.04;50.41
25947;BME280;13745;51.470;9.894;2024-01-11T09:49:22;100834.47;;;11.88;46.01
25947;BME280;13745;51.470;9.894;2024-01-11T09:52:09;100832.94;;;12.48;44.31
25947;BME280;13745;51.470;9.894;2024-01-11T09:54:57;100824.84;;;11.71;45.10
25947;BME280;13745;51.470;9.894;2024-01-11T09:57:44;100844.22;;;10.99;46.10
25947;BME280;13745;51.470;9.894;2024-01-11T10:00:30;100860.31;;;10.64;46.54
25947;BME280;13745;51.470;9.894;2024-01-11T10:03:15;100842.22;;;10.67;46.40
25947;BME280;13745;51.470;9.894;2024-01-11T10:06:02;100840.44;;;10.62;46.48
25947;BME280;13745;51.470;9.894;2024-01-11T10:08:49;100856.19;;;10.83;46.34
25947;BME280;13745;51.470;9.894;2024-01-11T10:11:34;100863.22;;;12.17;45.76
25947;BME280;13745;51.470;9.894;2024-01-11T10:14:20;100857.84;;;16.42;40.88
25947;BME280;13745;51.470;9.894;2024-01-11T10:17:06;100845.97;;;20.34;36.71
25947;BME280;13745;51.470;9.894;2024-01-11T10:19:52;100837.06;;;22.89;33.48
25947;BME280;13745;51.470;9.894;2024-01-11T10:22:39;100830.47;;;24.59;32.02
25947;BME280;13745;51.470;9.894;2024-01-11T10:25:26;100815.41;;;25.83;30.93
25947;BME280;13745;51.470;9.894;2024-01-11T10:28:13;100800.88;;;26.69;30.23
25947;BME280;13745;51.470;9.894;2024-01-11T10:30:58;100795.34;;;27.33;29.64
25947;BME280;13745;51.470;9.894;2024-01-11T10:33:45;100787.88;;;27.97;28.74
25947;BME280;13745;51.470;9.894;2024-01-11T10:36:30;100790.84;;;28.75;28.29
25947;BME280;13745;51.470;9.894;2024-01-11T10:39:16;100778.69;;;29.23;27.72
25947;BME280;13745;51.470;9.894;2024-01-11T10:42:05;100776.50;;;29.55;27.00
25947;BME280;13745;51.470;9.894;2024-01-11T10:44:54;100771.41;;;30.02;26.99
25947;BME280;13745;51.470;9.894;2024-01-11T10:47:43;100761.41;;;30.29;26.35
25947;BME280;13745;51.470;9.894;2024-01-11T10:50:35;100757.59;;;30.68;26.37
25947;BME280;13745;51.470;9.894;2024-01-11T10:53:28;100769.66;;;30.98;26.01
25947;BME280;13745;51.470;9.894;2024-01-11T10:56:14;100762.53;;;31.21;25.49
25947;BME280;13745;51.470;9.894;2024-01-11T10:59:02;100751.50;;;31.48;24.98
25947;BME280;13745;51.470;9.894;2024-01-11T11:01:48;100760.31;;;31.83;25.14
25947;BME280;13745;51.470;9.894;2024-01-11T11:04:34;100745.09;;;32.27;24.45
25947;BME280;13745;51.470;9.894;2024-01-11T11:07:22;100734.75;;;32.66;24.65
25947;BME280;13745;51.470;9.894;2024-01-11T11:10:08;100733.38;;;33.04;24.35
25947;BME280;13745;51.470;9.894;2024-01-11T11:12:55;100736.78;;;33.06;24.37
25947;BME280;13745;51.470;9.894;2024-01-11T11:15:45;100743.22;;;32.82;23.82
25947;BME280;13745;51.470;9.894;2024-01-11T11:18:32;100737.50;;;32.76;23.57
25947;BME280;13745;51.470;9.894;2024-01-11T11:21:18;100721.97;;;32.90;23.56
25947;BME280;13745;51.470;9.894;2024-01-11T11:24:06;100722.91;;;33.31;23.53
25947;BME280;13745;51.470;9.894;2024-01-11T11:26:51;100719.25;;;33.93;23.05
25947;BME280;13745;51.470;9.894;2024-01-11T11:29:36;100720.22;;;34.61;22.85
25947;BME280;13745;51.470;9.894;2024-01-11T11:32:35;100724.03;;;35.54;22.74
25947;BME280;13745;51.470;9.894;2024-01-11T11:35:22;100720.22;;;34.61;22.36
25947;BME280;13745;51.470;9.894;2024-01-11T11:38:08;100720.72;;;32.94;22.85
25947;BME280;13745;51.470;9.894;2024-01-11T11:40:54;100721.50;;;30.61;23.82
25947;BME280;13745;51.470;9.894;2024-01-11T11:43:40;100734.16;;;29.49;24.20
25947;BME280;13745;51.470;9.894;2024-01-11T11:46:26;100733.31;;;27.31;25.33
25947;BME280;13745;51.470;9.894;2024-01-11T11:49:12;100739.53;;;26.56;25.60
25947;BME280;13745;51.470;9.894;2024-01-11T11:51:58;100740.72;;;25.71;25.72
25947;BME280;13745;51.470;9.894;2024-01-11T11:54:44;100751.25;;;22.96;27.61
25947;BME280;13745;51.470;9.894;2024-01-11T11:57:29;100760.25;;;20.54;28.67
25947;BME280;13745;51.470;9.894;2024-01-11T12:00:15;100751.75;;;20.72;28.63
25947;BME280;13745;51.470;9.894;2024-01-11T12:03:02;100753.31;;;21.54;28.08
25947;BME280;13745;51.470;9.894;2024-01-11T12:05:50;100748.28;;;22.40;27.48
25947;BME280;13745;51.470;9.894;2024-01-11T12:08:36;100739.97;;;22.93;27.74
25947;BME280;13745;51.470;9.894;2024-01-11T12:11:21;100743.91;;;23.23;27.21
25947;BME280;13745;51.470;9.894;2024-01-11T12:14:07;100737.34;;;23.32;27.08
25947;BME280;13745;51.470;9.894;2024-01-11T12:16:56;100727.31;;;23.20;27.69
25947;BME280;13745;51.470;9.894;2024-01-11T12:19:41;100722.69;;;23.05;27.80
25947;BME280;13745;51.470;9.894;2024-01-11T12:22:27;100721.31;;;22.96;27.37
25947;BME280;13745;51.470;9.894;2024-01-11T12:25:13;100721.38;;;22.94;27.25
25947;BME280;13745;51.470;9.894;2024-01-11T12:27:59;100726.47;;;23.19;27.74
25947;BME280;13745;51.470;9.894;2024-01-11T12:30:45;100713.00;;;23.44;27.29
25947;BME280;13745;51.470;9.894;2024-01-11T12:33:30;100705.47;;;23.74;27.05
25947;BME280;13745;51.470;9.894;2024-01-11T12:36:15;100696.94;;;24.05;26.88
25947;BME280;13745;51.470;9.894;2024-01-11T12:39:02;100694.88;;;24.48;26.68
25947;BME280;13745;51.470;9.894;2024-01-11T12:41:49;100692.94;;;23.97;27.07
25947;BME280;13745;51.470;9.894;2024-01-11T12:44:34;100692.03;;;23.01;27.91
25947;BME280;13745;51.470;9.894;2024-01-11T12:47:21;100681.91;;;23.10;27.66
25947;BME280;13745;51.470;9.894;2024-01-11T12:50:07;100680.69;;;22.77;27.79
25947;BME280;13745;51.470;9.894;2024-01-11T12:53:07;100672.50;;;21.73;27.78
25947;BME280;13745;51.470;9.894;2024-01-11T12:56:04;100666.53;;;21.21;28.43
25947;BME280;13745;51.470;9.894;2024-01-11T12:59:04;100664.41;;;20.56;28.95
25947;BME280;13745;51.470;9.894;2024-01-11T13:01:50;100665.97;;;18.88;29.85
25947;BME280;13745;51.470;9.894;2024-01-11T13:04:36;100674.56;;;16.99;31.38
25947;BME280;13745;51.470;9.894;2024-01-11T13:07:22;100685.53;;;15.47;32.55
25947;BME280;13745;51.470;9.894;2024-01-11T13:10:08;100689.78;;;14.82;33.44
25947;BME280;13745;51.470;9.894;2024-01-11T13:12:55;100677.03;;;14.41;33.89
25947;BME280;13745;51.470;9.894;2024-01-11T13:15:41;100673.81;;;14.08;34.36
25947;BME280;13745;51.470;9.894;2024-01-11T13:18:26;100667.09;;;15.62;33.43
25947;BME280;13745;51.470;9.894;2024-01-11T13:21:11;100668.63;;;15.05;33.77
25947;BME280;13745;51.470;9.894;2024-01-11T13:23:57;100671.09;;;15.88;33.49
25947;BME280;13745;51.470;9.894;2024-01-11T13:26:42;100677.00;;;17.08;32.75
25947;BME280;13745;51.470;9.894;2024-01-11T13:29:28;100680.25;;;18.05;32.07
25947;BME280;13745;51.470;9.894;2024-01-11T13:32:14;100685.53;;;18.40;31.60
25947;BME280;13745;51.470;9.894;2024-01-11T13:34:59;100688.69;;;18.53;31.18
25947;BME280;13745;51.470;9.894;2024-01-11T13:37:44;100703.00;;;18.04;31.30
25947;BME280;13745;51.470;9.894;2024-01-11T13:40:30;100716.78;;;16.79;31.95
25947;BME280;13745;51.470;9.894;2024-01-11T13:43:15;100719.38;;;15.62;33.11
25947;BME280;13745;51.470;9.894;2024-01-11T13:46:03;100713.78;;;14.04;33.91
25947;BME280;13745;51.470;9.894;2024-01-11T13:48:48;100718.47;;;12.16;35.45
25947;BME280;13745;51.470;9.894;2024-01-11T13:51:33;100728.13;;;10.71;37.21
25947;BME280;13745;51.470;9.894;2024-01-11T13:54:18;100729.50;;;9.54;38.03
25947;BME280;13745;51.470;9.894;2024-01-11T13:57:05;100747.19;;;8.68;38.96
25947;BME280;13745;51.470;9.894;2024-01-11T13:59:50;100749.47;;;8.03;39.66
25947;BME280;13745;51.470;9.894;2024-01-11T14:02:37;100756.06;;;7.48;41.11
25947;BME280;13745;51.470;9.894;2024-01-11T14:05:23;100740.22;;;6.93;41.58
25947;BME280;13745;51.470;9.894;2024-01-11T14:08:08;100752.78;;;6.45;42.04
25947;BME280;13745;51.470;9.894;2024-01-11T14:10:53;100755.84;;;5.97;42.89
25947;BME280;13745;51.470;9.894;2024-01-11T14:13:38;100759.78;;;5.56;43.83
25947;BME280;13745;51.470;9.894;2024-01-11T14:16:24;100764.81;;;5.24;44.08
25947;BME280;13745;51.470;9.894;2024-01-11T14:19:11;100771.47;;;4.91;45.03
25947;BME280;13745;51.470;9.894;2024-01-11T14:21:56;100779.56;;;4.50;45.51
25947;BME280;13745;51.470;9.894;2024-01-11T14:24:41;100793.81;;;4.17;45.83
25947;BME280;13745;51.470;9.894;2024-01-11T14:27:27;100776.63;;;3.90;46.53